Time;durP1;ratioP1;P1;durP2;ratioP2;P2;SDS_P1;SDS_P2;PMS_P1;PMS_P2;Temp;Humidity;BMP_temperature;BMP_pressure;BME280_temperature;BME280_humidity;BME280_pressure;Samples;Min_cycle;Max_cycle;Signal;HPM_P1;HPM_P2
2022/10/13 00:03:01;;;;;;;15.43;11.05;;;;;;;16.18;56.98;101987.22;5067023;28;20407;-65
2022/10/13 00:05:28;;;;;;;16.55;10.50;;;;;;;16.21;56.99;101991.41;5059048;28;20409;-65
2022/10/13 00:08:47;;;;;;;15.70;10.82;;;;;;;16.19;56.86;101988.06;5039744;28;20931;-65
2022/10/13 00:11:19;;;;;;;13.52;11.00;;;;;;;16.19;56.86;101986.22;5042188;28;20455;-65
2022/10/13 00:13:46;;;;;;;16.93;11.67;;;;;;;16.19;56.80;101985.38;5037360;28;20388;-65
2022/10/13 00:16:13;;;;;;;14.38;11.00;;;;;;;16.21;56.80;101981.50;5042168;28;20489;-66
2022/10/13 00:18:40;;;;;;;14.30;10.52;;;;;;;16.20;56.66;101981.69;5046630;28;20382;-65
2022/10/13 00:22:38;;;;;;;15.38;10.80;;;;;;;16.21;56.74;101983.38;5053000;28;20413;-65
2022/10/13 00:25:04;;;;;;;14.68;11.27;;;;;;;16.18;56.79;101986.38;5032553;28;20471;-65
2022/10/13 00:27:30;;;;;;;14.73;10.52;;;;;;;16.10;56.99;101975.72;5046713;28;20382;-64
2022/10/13 00:33:06;;;;;;;16.13;11.27;;;;;;;16.07;57.06;101966.22;5055147;28;20460;-65
2022/10/13 00:35:32;;;;;;;14.00;10.82;;;;;;;16.05;57.13;101963.72;5046333;28;20405;-65
2022/10/13 00:37:57;;;;;;;18.77;12.52;;;;;;;16.07;57.12;101962.72;5035674;28;20379;-64
2022/10/13 00:40:23;;;;;;;15.00;11.23;;;;;;;16.05;57.12;101958.38;5033915;28;20397;-65
2022/10/13 00:42:49;;;;;;;17.83;11.40;;;;;;;16.02;57.19;101961.38;5017765;28;20388;-65
2022/10/13 00:45:25;;;;;;;22.20;11.47;;;;;;;16.00;57.24;101963.41;5026485;28;20379;-65
2022/10/13 00:47:56;;;;;;;14.82;10.98;;;;;;;15.98;57.25;101953.91;5012964;28;20474;-64
2022/10/13 00:52:31;;;;;;;15.53;10.73;;;;;;;15.96;57.11;101961.28;5068915;27;20442;-65
2022/10/13 00:54:58;;;;;;;13.55;10.30;;;;;;;15.92;57.14;101954.59;5063532;28;20396;-64
2022/10/13 00:57:23;;;;;;;15.32;10.48;;;;;;;15.91;57.10;101950.25;5066808;28;20403;-64
2022/10/13 00:59:49;;;;;;;13.30;10.23;;;;;;;15.87;57.05;101949.78;5050713;28;20720;-66
2022/10/13 01:03:37;;;;;;;12.95;10.40;;;;;;;15.56;57.76;101949.72;5060529;28;20418;-65
2022/10/13 01:06:11;;;;;;;16.38;10.52;;;;;;;15.59;57.60;101949.34;5041615;28;20415;-65
2022/10/13 01:08:37;;;;;;;12.23;10.00;;;;;;;15.64;57.55;101953.16;5026418;28;20886;-65
2022/10/13 01:12:36;;;;;;;12.73;10.77;;;;;;;15.68;57.40;101948.31;5097116;27;20456;-65
2022/10/13 01:15:27;;;;;;;13.70;10.45;;;;;;;15.65;57.40;101938.81;5084508;28;20406;-64
2022/10/13 01:19:10;;;;;;;12.85;10.35;;;;;;;15.60;57.45;101933.16;5092616;27;20404;-65
2022/10/13 01:21:48;;;;;;;12.57;10.20;;;;;;;15.60;57.39;101935.81;5049337;28;20994;-65
2022/10/13 01:25:49;;;;;;;14.63;11.05;;;;;;;15.58;57.67;101935.16;5043786;28;20461;-65
2022/10/13 01:31:52;;;;;;;14.00;10.23;;;;;;;15.54;57.88;101949.88;5032989;28;20399;-65
2022/10/13 01:35:54;;;;;;;15.93;10.65;;;;;;;15.44;57.96;101938.56;5057917;28;20409;-64
2022/10/13 01:38:42;;;;;;;14.80;10.38;;;;;;;15.44;58.14;101941.22;5046595;28;20397;-65
2022/10/13 01:41:37;;;;;;;14.15;10.07;;;;;;;15.41;57.96;101937.06;5046711;28;20799;-64
2022/10/13 01:45:51;;;;;;;14.25;10.25;;;;;;;15.37;58.17;101933.06;5092136;27;20438;-64
2022/10/13 01:48:19;;;;;;;16.93;10.33;;;;;;;15.37;58.16;101932.22;5066325;28;20399;-65
2022/10/13 01:50:47;;;;;;;15.13;9.95;;;;;;;15.34;58.09;101933.41;5052622;28;20384;-65
2022/10/13 01:55:19;;;;;;;15.70;10.48;;;;;;;15.34;58.08;101932.56;5088317;27;20455;-65
2022/10/13 01:57:45;;;;;;;13.70;10.60;;;;;;;15.28;58.12;101924.22;5066350;28;20403;-65
2022/10/13 02:00:17;;;;;;;17.10;10.67;;;;;;;15.28;58.24;101926.91;5065878;28;20392;-67
2022/10/13 02:02:57;;;;;;;14.68;10.23;;;;;;;15.25;58.42;101921.91;5052789;28;20380;-65
2022/10/13 02:08:33;;;;;;;15.93;10.95;;;;;;;15.20;58.36;101918.09;5070055;28;20404;-65
2022/10/13 02:11:06;;;;;;;15.13;10.93;;;;;;;15.19;58.18;101911.91;5051721;28;20409;-65
2022/10/13 02:16:38;;;;;;;16.52;11.07;;;;;;;15.16;58.66;101904.25;5067096;28;20404;-64
2022/10/13 02:19:07;;;;;;;14.70;10.85;;;;;;;15.18;58.39;101910.25;5058000;28;20408;-65
2022/10/13 02:21:32;;;;;;;14.35;10.23;;;;;;;15.14;58.25;101906.22;5061474;28;20388;-65
2022/10/13 02:23:58;;;;;;;15.38;10.43;;;;;;;15.13;58.62;101915.28;5058272;28;20427;-65
2022/10/13 02:27:18;;;;;;;15.15;11.55;;;;;;;15.06;58.62;101901.75;5050548;28;20414;-65
2022/10/13 02:29:52;;;;;;;14.43;10.20;;;;;;;15.07;58.70;101905.25;5048452;28;20400;-64
2022/10/13 02:32:18;;;;;;;16.25;10.48;;;;;;;15.09;58.62;101920.13;5046012;28;20420;-65
2022/10/13 02:34:43;;;;;;;15.13;11.00;;;;;;;15.05;58.50;101907.25;5032663;28;20832;-64
2022/10/13 02:37:10;;;;;;;14.87;10.97;;;;;;;15.04;58.42;101908.28;5040571;28;20389;-65
2022/10/13 02:40:26;;;;;;;17.63;11.05;;;;;;;15.02;58.43;101915.63;5094530;27;20455;-64
2022/10/13 02:42:51;;;;;;;17.48;11.35;;;;;;;15.01;58.43;101919.28;5064288;28;20400;-65
2022/10/13 02:45:17;;;;;;;15.57;11.30;;;;;;;14.95;58.37;101915.47;5069567;28;20435;-64
2022/10/13 02:47:42;;;;;;;16.50;11.13;;;;;;;14.96;58.53;101918.97;5065951;28;20457;-64
2022/10/13 02:50:08;;;;;;;16.65;11.18;;;;;;;14.93;58.76;101911.28;5067524;28;20455;-65
2022/10/13 02:53:58;;;;;;;16.33;11.05;;;;;;;14.89;58.51;101913.47;5044901;28;20408;-64
2022/10/13 02:56:24;;;;;;;17.35;11.93;;;;;;;14.87;58.63;101912.81;5026469;28;20449;-64
2022/10/13 02:58:49;;;;;;;16.10;10.60;;;;;;;14.82;58.55;101918.66;5028808;28;20734;-65
2022/10/13 03:01:15;;;;;;;18.63;10.85;;;;;;;14.80;58.81;101914.47;5031973;28;20387;-65
2022/10/13 03:03:40;;;;;;;14.30;10.40;;;;;;;14.75;58.44;101914.13;5026411;28;20384;-64
2022/10/13 03:06:07;;;;;;;13.32;10.43;;;;;;;14.71;58.58;101902.97;5026487;28;20383;-64
2022/10/13 03:09:45;;;;;;;14.45;9.75;;;;;;;14.67;58.34;101918.47;5062662;27;20409;-65
2022/10/13 03:12:49;;;;;;;14.32;10.55;;;;;;;14.67;58.08;101925.66;5047536;28;20931;-65
2022/10/13 03:16:30;;;;;;;14.20;10.53;;;;;;;14.62;58.23;101920.84;5047296;28;20464;-65
2022/10/13 03:18:56;;;;;;;15.67;11.27;;;;;;;14.61;58.32;101929.84;5036593;28;20407;-67
2022/10/13 03:21:21;;;;;;;17.23;11.60;;;;;;;14.60;58.13;101925.50;5026390;28;20430;-63
2022/10/13 03:25:54;;;;;;;20.20;12.23;;;;;;;14.52;58.24;101920.13;5103127;27;20764;-65
2022/10/13 03:28:20;;;;;;;16.48;11.80;;;;;;;14.51;58.50;101923.78;5086581;28;20467;-64
2022/10/13 03:30:45;;;;;;;14.75;11.32;;;;;;;14.50;58.26;101932.81;5086832;28;20375;-65
2022/10/13 03:34:23;;;;;;;15.65;11.80;;;;;;;14.47;58.70;101925.13;5042885;28;20411;-64
2022/10/13 03:36:49;;;;;;;17.70;11.95;;;;;;;14.45;58.64;101924.47;5013756;28;20524;-64
2022/10/13 03:39:14;;;;;;;16.23;11.73;;;;;;;14.41;58.54;101920.47;5017243;28;20949;-66
2022/10/13 03:41:40;;;;;;;18.67;11.95;;;;;;;14.42;58.39;101930.13;5022040;28;20383;-64
2022/10/13 03:45:57;;;;;;;17.48;11.93;;;;;;;14.33;58.59;101924.78;5057960;28;20410;-64
2022/10/13 03:48:23;;;;;;;16.55;11.70;;;;;;;14.34;58.17;101936.28;5031848;28;20830;-64
2022/10/13 03:50:48;;;;;;;18.85;11.65;;;;;;;14.34;58.27;101928.28;5031650;28;20382;-65
2022/10/13 03:53:14;;;;;;;15.98;11.02;;;;;;;14.31;58.26;101929.47;5034291;28;20466;-64
2022/10/13 03:56:07;;;;;;;21.65;11.45;;;;;;;14.27;58.35;101930.78;5057029;28;20826;-66
2022/10/13 03:58:33;;;;;;;20.95;11.80;;;;;;;14.27;58.47;101932.63;5032122;28;20837;-63
2022/10/13 04:01:03;;;;;;;15.33;11.60;;;;;;;14.21;58.14;101927.94;5030994;28;20753;-65
2022/10/13 04:03:29;;;;;;;18.23;12.40;;;;;;;14.25;58.09;101946.13;5033808;28;20422;-65
2022/10/13 04:05:59;;;;;;;15.82;12.07;;;;;;;14.25;58.06;101948.78;5029459;28;20386;-65
2022/10/13 04:08:24;;;;;;;17.20;12.20;;;;;;;14.21;58.01;101943.94;5035176;28;20470;-65
2022/10/13 04:10:58;;;;;;;16.20;11.47;;;;;;;14.18;58.17;101941.59;5026574;28;20891;-64
2022/10/13 04:13:23;;;;;;;15.60;11.73;;;;;;;14.16;58.03;101947.09;5019714;28;20404;-65
2022/10/13 04:15:49;;;;;;;17.07;11.80;;;;;;;14.15;57.95;101943.59;5046658;28;20923;-65
2022/10/13 04:18:14;;;;;;;17.45;12.40;;;;;;;14.10;58.22;101943.25;5032099;28;20421;-64
2022/10/13 04:20:40;;;;;;;19.17;12.60;;;;;;;14.10;58.32;101942.44;5036036;28;20388;-65
2022/10/13 04:23:06;;;;;;;19.55;12.60;;;;;;;14.07;58.39;101937.41;5026064;28;20445;-64
2022/10/13 04:25:57;;;;;;;20.07;12.40;;;;;;;14.06;58.05;101941.91;5053794;28;20971;-65
2022/10/13 04:28:22;;;;;;;19.43;12.70;;;;;;;14.04;57.96;101937.72;5042814;28;20395;-65
2022/10/13 04:30:48;;;;;;;19.70;12.70;;;;;;;14.06;58.11;101944.59;5026899;28;20429;-66
2022/10/13 04:35:22;;;;;;;22.52;13.63;;;;;;;14.04;58.03;101943.88;5059834;28;20483;-65
2022/10/13 04:38:08;;;;;;;18.40;12.70;;;;;;;14.04;58.29;101949.22;5076808;27;20408;-64
2022/10/13 04:40:34;;;;;;;20.88;12.60;;;;;;;14.06;58.07;101949.06;5064278;28;20396;-65
2022/10/13 04:43:00;;;;;;;19.53;12.80;;;;;;;14.02;58.21;101937.88;5063294;28;20960;-66
2022/10/13 04:45:26;;;;;;;18.20;12.77;;;;;;;14.00;58.03;101934.56;5064614;28;20434;-64
2022/10/13 04:47:51;;;;;;;22.90;14.85;;;;;;;14.04;58.14;101943.06;5066337;28;20770;-65
2022/10/13 04:50:18;;;;;;;21.85;15.75;;;;;;;14.07;58.18;101940.09;5066408;28;20372;-66
2022/10/13 04:52:43;;;;;;;22.45;13.57;;;;;;;14.13;57.90;101948.28;5066302;28;20376;-62
2022/10/13 04:55:09;;;;;;;17.65;12.98;;;;;;;14.14;58.03;101949.91;5056589;28;20383;-64
2022/10/13 04:57:35;;;;;;;18.47;12.83;;;;;;;14.14;57.89;101944.59;5065598;28;20404;-65
2022/10/13 05:00:00;;;;;;;21.40;14.03;;;;;;;14.17;57.94;101939.91;5057730;28;20508;-65
2022/10/13 05:02:26;;;;;;;17.70;12.30;;;;;;;14.21;57.75;101950.09;5065714;28;20380;-66
2022/10/13 05:04:51;;;;;;;18.20;12.47;;;;;;;14.22;57.26;101942.94;5057739;28;20381;-65
2022/10/13 05:07:17;;;;;;;20.13;12.97;;;;;;;14.28;57.54;101943.13;5065388;28;20382;-66
2022/10/13 05:09:42;;;;;;;20.63;13.30;;;;;;;14.32;57.10;101949.78;5061821;28;20404;-65
2022/10/13 05:12:08;;;;;;;20.50;13.33;;;;;;;14.36;57.22;101955.63;5065998;28;20384;-66
2022/10/13 05:15:30;;;;;;;18.13;12.63;;;;;;;14.40;57.09;101948.97;5080527;27;2169238;-65
2022/10/13 05:17:56;;;;;;;20.38;13.35;;;;;;;14.47;57.20;101960.63;5133378;27;20391;-65
2022/10/13 05:20:22;;;;;;;18.77;13.00;;;;;;;14.54;56.96;101960.81;5129524;27;20836;-65
2022/10/13 05:22:47;;;;;;;18.87;12.83;;;;;;;14.62;56.88;101954.69;5123208;27;20387;-67
2022/10/13 05:25:13;;;;;;;21.17;12.60;;;;;;;14.67;56.68;101960.34;5126715;27;20903;-65
2022/10/13 05:29:47;;;;;;;20.35;13.75;;;;;;;14.72;56.50;101958.84;5055753;28;20418;-64
2022/10/13 05:32:13;;;;;;;19.75;14.02;;;;;;;14.73;56.95;101962.38;5043550;28;20448;-65
2022/10/13 05:34:38;;;;;;;19.17;13.27;;;;;;;14.82;56.75;101965.84;5035840;28;20382;-64
2022/10/13 05:37:04;;;;;;;20.57;13.93;;;;;;;14.83;57.08;101978.22;5043927;28;20381;-65
2022/10/13 05:39:29;;;;;;;28.97;16.70;;;;;;;14.89;57.04;101969.53;5046083;28;20883;-64
2022/10/13 05:41:55;;;;;;;26.17;17.80;;;;;;;14.95;56.95;101982.22;5043462;28;20421;-64
2022/10/13 05:44:20;;;;;;;21.10;15.37;;;;;;;15.01;56.73;101980.72;5035806;28;20381;-64
2022/10/13 05:48:30;;;;;;;25.10;14.38;;;;;;;15.16;56.76;101999.56;5056080;28;20930;-66
2022/10/13 05:50:58;;;;;;;23.80;14.82;;;;;;;15.18;56.71;101995.72;5041341;28;20897;-64
2022/10/13 05:53:27;;;;;;;23.63;14.53;;;;;;;15.23;56.34;101992.53;5038719;28;20386;-66
2022/10/13 05:55:57;;;;;;;23.10;14.45;;;;;;;15.26;56.29;102003.72;5046536;28;20772;-64
2022/10/13 05:58:23;;;;;;;23.02;14.75;;;;;;;15.34;56.08;102002.88;5046749;28;20436;-64
2022/10/13 06:00:50;;;;;;;22.00;14.20;;;;;;;15.37;56.10;102009.72;5046232;28;20396;-64
2022/10/13 06:03:19;;;;;;;23.27;14.97;;;;;;;15.45;56.07;102001.69;5037667;28;20390;-65
2022/10/13 06:05:46;;;;;;;23.70;14.95;;;;;;;15.46;56.00;102000.69;5042357;28;20947;-64
2022/10/13 06:08:14;;;;;;;21.80;14.23;;;;;;;15.55;56.00;102006.84;5038759;28;20785;-64
2022/10/13 06:11:50;;;;;;;29.23;15.27;;;;;;;15.59;55.73;102002.81;5057476;28;20818;-65
2022/10/13 06:14:15;;;;;;;24.05;14.90;;;;;;;15.66;55.54;102010.00;5033185;28;20963;-65
2022/10/13 06:16:41;;;;;;;25.77;14.03;;;;;;;15.76;55.36;102014.34;5032302;28;20418;-64
2022/10/13 06:19:06;;;;;;;26.88;15.32;;;;;;;15.79;55.41;102006.81;5046632;28;20795;-66
2022/10/13 06:21:35;;;;;;;22.47;15.60;;;;;;;15.93;55.22;102020.44;5043016;28;20394;-65
2022/10/13 06:24:01;;;;;;;25.23;15.90;;;;;;;16.05;55.26;102022.56;5026854;28;20387;-65
2022/10/13 06:26:26;;;;;;;26.40;16.67;;;;;;;16.16;55.21;102021.34;5040949;28;20757;-65
2022/10/13 06:28:51;;;;;;;23.70;14.63;;;;;;;16.28;55.07;102016.44;5026422;28;20751;-65
2022/10/13 06:31:17;;;;;;;21.20;14.87;;;;;;;16.33;55.18;102010.53;5040385;28;20469;-64
2022/10/13 06:33:43;;;;;;;27.00;15.90;;;;;;;16.45;55.14;102017.16;5040520;28;20394;-68
2022/10/13 06:36:41;;;;;;;19.23;13.95;;;;;;;16.62;54.93;102010.69;5048838;28;20838;-65
2022/10/13 06:39:07;;;;;;;19.98;14.38;;;;;;;16.78;54.81;102020.47;5038366;28;20403;-65
2022/10/13 06:41:32;;;;;;;21.83;13.40;;;;;;;16.83;54.77;102019.94;5026748;28;20394;-64
2022/10/13 06:43:58;;;;;;;22.47;13.67;;;;;;;16.91;55.06;102013.72;5046835;28;20460;-65
2022/10/13 06:46:23;;;;;;;19.50;13.77;;;;;;;16.90;54.95;102020.06;5046678;28;20443;-65
2022/10/13 06:48:50;;;;;;;18.30;13.30;;;;;;;16.95;54.95;102009.66;5032570;28;20385;-65
2022/10/13 06:51:16;;;;;;;21.88;14.60;;;;;;;17.09;54.94;102016.88;5036696;28;20391;-64
2022/10/13 06:53:41;;;;;;;22.27;13.95;;;;;;;17.27;54.68;102018.38;5040533;28;20744;-64
2022/10/13 06:56:08;;;;;;;20.83;13.80;;;;;;;17.39;54.50;102016.94;5034728;28;20409;-64
2022/10/13 06:58:35;;;;;;;22.33;14.73;;;;;;;17.52;54.20;102013.59;5045468;28;20436;-64
2022/10/13 07:01:00;;;;;;;17.83;13.20;;;;;;;17.45;54.09;102016.22;5026388;28;20437;-64
2022/10/13 07:03:26;;;;;;;16.50;12.57;;;;;;;17.42;54.24;102013.88;5032792;28;20382;-64
2022/10/13 07:08:11;;;;;;;18.42;12.82;;;;;;;17.49;54.05;102016.69;5070975;28;20404;-64
2022/10/13 07:10:37;;;;;;;17.00;13.82;;;;;;;17.60;54.00;102016.22;5064529;28;20461;-64
2022/10/13 07:13:03;;;;;;;15.80;12.85;;;;;;;17.65;53.80;102016.50;5066932;28;20430;-65
2022/10/13 07:15:29;;;;;;;18.17;13.40;;;;;;;17.77;53.32;102015.00;5067586;28;20462;-64
2022/10/13 07:17:55;;;;;;;15.80;12.53;;;;;;;17.77;53.37;102015.00;5068548;28;20436;-65
2022/10/13 07:20:22;;;;;;;17.70;12.70;;;;;;;17.86;53.04;102015.78;5067257;28;20392;-65
2022/10/13 07:22:47;;;;;;;17.63;12.75;;;;;;;17.87;52.91;102009.38;5065990;28;20405;-65
2022/10/13 07:25:13;;;;;;;19.27;14.70;;;;;;;17.91;52.90;102015.19;5066932;28;20388;-65
2022/10/13 07:27:39;;;;;;;18.25;13.43;;;;;;;18.13;52.65;102010.72;5068005;28;21002;-65
2022/10/13 07:30:09;;;;;;;19.85;13.10;;;;;;;18.30;52.03;102014.03;5066194;28;20420;-64
2022/10/13 07:32:34;;;;;;;15.48;12.20;;;;;;;18.16;52.29;102005.00;5066842;28;20967;-65
2022/10/13 07:35:00;;;;;;;17.10;12.68;;;;;;;18.34;52.12;102009.94;5066565;28;20419;-64
2022/10/13 07:37:26;;;;;;;16.58;12.27;;;;;;;18.49;51.50;102005.38;5063737;28;20889;-65
2022/10/13 07:39:52;;;;;;;15.27;12.45;;;;;;;18.45;51.60;101997.88;5052201;28;20424;-64
2022/10/13 07:42:17;;;;;;;20.27;12.13;;;;;;;18.48;51.52;101998.31;5046763;28;20386;-65
2022/10/13 07:44:43;;;;;;;16.33;12.03;;;;;;;18.70;51.19;102001.81;5047337;28;20780;-64
2022/10/13 07:47:09;;;;;;;18.27;13.10;;;;;;;18.91;50.60;101997.50;5047120;28;20424;-66
2022/10/13 07:49:34;;;;;;;17.63;12.47;;;;;;;18.96;50.49;101995.06;5051818;28;20390;-64
2022/10/13 07:52:00;;;;;;;18.30;12.73;;;;;;;19.08;50.20;101990.81;5049857;28;20396;-65
2022/10/13 07:54:26;;;;;;;17.58;12.90;;;;;;;19.19;50.33;101994.00;5053029;28;20507;-64
2022/10/13 07:56:52;;;;;;;18.10;13.70;;;;;;;19.39;50.00;101997.66;5049281;28;20877;-64
2022/10/13 07:59:18;;;;;;;15.03;12.17;;;;;;;19.51;49.64;101994.41;5048606;28;20488;-65
2022/10/13 08:03:58;;;;;;;18.90;13.20;;;;;;;19.67;49.20;101984.16;5036195;28;20411;-68
2022/10/13 08:06:23;;;;;;;15.95;12.65;;;;;;;19.50;49.44;101988.22;5026881;28;20399;-64
2022/10/13 08:08:49;;;;;;;16.85;13.32;;;;;;;19.40;49.80;101985.03;5030614;28;20808;-64
2022/10/13 08:12:00;;;;;;;17.38;13.38;;;;;;;19.58;49.57;101971.91;5055715;28;20431;-64
2022/10/13 08:14:26;;;;;;;18.45;13.77;;;;;;;19.70;49.39;101979.38;5048657;28;20398;-64
2022/10/13 08:16:51;;;;;;;15.27;13.10;;;;;;;19.73;49.30;101976.31;5055073;28;20381;-65
2022/10/13 08:19:19;;;;;;;18.40;13.77;;;;;;;19.67;49.46;101976.06;5056349;28;20412;-64
2022/10/13 08:21:45;;;;;;;21.08;14.50;;;;;;;19.63;49.49;101976.69;5042151;28;20393;-65
2022/10/13 08:24:13;;;;;;;17.33;13.70;;;;;;;19.79;49.23;101980.91;5032934;28;20947;-66
2022/10/13 08:26:39;;;;;;;19.85;14.05;;;;;;;19.95;48.81;101974.34;5051406;28;20913;-64
2022/10/13 08:29:05;;;;;;;18.48;13.65;;;;;;;19.96;48.61;101973.34;5041370;28;20384;-64
2022/10/13 08:33:11;;;;;;;20.17;14.45;;;;;;;20.07;48.65;101967.38;5095501;27;20408;-65
2022/10/13 08:35:37;;;;;;;15.40;13.25;;;;;;;19.84;48.75;101959.63;5066253;28;20465;-63
2022/10/13 08:40:55;;;;;;;16.92;13.50;;;;;;;19.77;48.94;101967.69;5053504;28;20414;-64
2022/10/13 08:43:23;;;;;;;17.63;13.48;;;;;;;19.66;49.06;101955.59;5039807;28;20455;-65
2022/10/13 08:45:57;;;;;;;15.95;13.65;;;;;;;19.75;48.98;101967.03;5035138;28;20481;-65
2022/10/13 08:48:28;;;;;;;18.60;14.10;;;;;;;19.65;49.10;101969.25;5035399;28;20382;-65
2022/10/13 08:50:56;;;;;;;15.70;13.97;;;;;;;19.52;49.75;101974.53;5043876;28;20818;-65
2022/10/13 08:53:22;;;;;;;19.27;13.90;;;;;;;19.57;49.69;101969.41;5035192;28;20373;-65
2022/10/13 08:55:51;;;;;;;17.53;14.33;;;;;;;19.63;49.62;101966.75;5043820;28;20436;-66
2022/10/13 08:58:30;;;;;;;17.50;14.45;;;;;;;19.57;49.59;101964.88;5035242;28;20388;-65
2022/10/13 09:01:15;;;;;;;15.82;14.13;;;;;;;19.74;49.62;101978.00;5026164;28;20399;-65
2022/10/13 09:04:06;;;;;;;19.20;14.07;;;;;;;19.86;49.36;101971.00;5044396;28;20393;-65
2022/10/13 09:06:59;;;;;;;16.02;13.27;;;;;;;19.93;49.29;101969.16;5045883;28;20398;-65
2022/10/13 09:09:25;;;;;;;16.50;13.15;;;;;;;19.82;49.34;101967.88;5037120;28;20381;-65
2022/10/13 09:11:50;;;;;;;15.10;13.47;;;;;;;19.77;49.21;101961.44;5028450;28;20383;-66
2022/10/13 09:14:39;;;;;;;18.90;14.10;;;;;;;19.72;49.61;101958.53;5036512;28;20386;-65
2022/10/13 09:17:25;;;;;;;17.37;14.37;;;;;;;19.75;49.74;101964.34;5033251;28;20385;-65
2022/10/13 09:20:01;;;;;;;17.92;14.63;;;;;;;19.62;49.66;101953.50;5041350;28;20413;-65
2022/10/13 09:22:31;;;;;;;18.15;14.48;;;;;;;19.73;49.87;101963.72;5036792;28;20390;-65
2022/10/13 09:26:22;;;;;;;19.15;15.95;;;;;;;19.84;49.79;101960.47;5051195;28;20414;-65
2022/10/13 09:28:48;;;;;;;17.70;15.70;;;;;;;19.86;50.03;101968.31;5044402;28;20401;-66
2022/10/13 09:31:26;;;;;;;24.80;16.00;;;;;;;19.87;50.21;101959.22;5046731;28;20405;-66
2022/10/13 09:34:01;;;;;;;24.33;15.57;;;;;;;19.69;50.35;101943.59;5043842;28;20382;-66
2022/10/13 09:36:27;;;;;;;21.08;16.08;;;;;;;19.67;50.29;101959.94;5046516;28;20392;-65
2022/10/13 09:39:07;;;;;;;20.20;14.65;;;;;;;19.62;50.48;101957.00;5043425;28;20376;-65
2022/10/13 09:41:35;;;;;;;19.15;15.15;;;;;;;19.65;50.33;101953.94;5035192;28;20384;-65
2022/10/13 09:44:10;;;;;;;19.85;15.55;;;;;;;19.58;50.49;101952.25;5043685;28;20382;-65
2022/10/13 09:46:45;;;;;;;19.67;15.57;;;;;;;19.29;51.06;101954.16;5035352;28;20383;-66
2022/10/13 09:49:39;;;;;;;18.83;16.27;;;;;;;19.35;51.01;101964.09;5083158;27;2034704;-65
2022/10/13 09:52:13;;;;;;;21.63;15.53;;;;;;;19.28;51.20;101963.25;5124628;28;20390;-65
2022/10/13 09:54:38;;;;;;;20.10;14.88;;;;;;;19.23;51.14;101952.25;5127681;28;20386;-64
2022/10/13 09:57:16;;;;;;;21.57;15.03;;;;;;;19.30;51.36;101950.44;5116145;28;20463;-64
2022/10/13 09:59:44;;;;;;;21.50;15.40;;;;;;;19.40;51.38;101955.47;5114340;28;20470;-65
2022/10/13 10:02:29;;;;;;;18.52;14.18;;;;;;;19.41;51.05;101944.50;5112648;28;20387;-65
2022/10/13 10:04:59;;;;;;;18.48;14.55;;;;;;;19.47;50.60;101945.56;5115278;28;20367;-66
2022/10/13 10:07:29;;;;;;;19.10;14.30;;;;;;;19.44;50.48;101944.09;5112229;28;20900;-65
2022/10/13 10:10:00;;;;;;;21.73;14.68;;;;;;;19.50;50.39;101937.13;5108236;28;20380;-65
2022/10/13 10:12:30;;;;;;;19.70;14.20;;;;;;;19.55;50.18;101929.25;5120059;28;20393;-66
2022/10/13 10:14:55;;;;;;;17.63;13.48;;;;;;;19.76;49.71;101916.75;5112447;28;20375;-65
2022/10/13 10:17:35;;;;;;;19.53;13.80;;;;;;;19.93;49.56;101928.81;5127433;28;20375;-65
2022/10/13 10:20:03;;;;;;;17.90;13.70;;;;;;;19.80;50.04;101929.59;5112889;28;20733;-66
2022/10/13 10:22:35;;;;;;;19.85;14.25;;;;;;;19.98;49.67;101929.03;5127322;28;20868;-65
2022/10/13 10:25:21;;;;;;;17.87;11.93;;;;;;;19.99;48.81;101922.63;5120200;28;20396;-64
2022/10/13 10:28:01;;;;;;;17.80;11.60;;;;;;;20.12;48.42;101921.00;5121981;28;20437;-65
2022/10/13 10:30:29;;;;;;;17.70;12.73;;;;;;;20.17;48.30;101915.84;5126639;28;20880;-64
2022/10/13 10:33:16;;;;;;;16.50;12.77;;;;;;;20.15;48.34;101913.34;5118468;28;20459;-66
2022/10/13 10:36:02;;;;;;;19.00;12.00;;;;;;;20.31;47.86;101908.59;5120456;28;20392;-64
2022/10/13 10:38:46;;;;;;;17.58;11.10;;;;;;;20.44;47.34;101904.06;5118215;28;20420;-66
2022/10/13 10:41:43;;;;;;;15.70;11.20;;;;;;;20.39;46.96;101893.06;5112629;28;20383;-65
2022/10/13 10:44:16;;;;;;;16.25;11.10;;;;;;;20.48;46.90;101891.00;5126348;28;20387;-65
2022/10/13 10:46:46;;;;;;;17.27;11.85;;;;;;;20.52;46.86;101894.09;5124781;28;20935;-64
2022/10/13 10:49:34;;;;;;;15.65;11.27;;;;;;;20.57;46.67;101888.94;5110728;28;20469;-65
2022/10/13 10:52:04;;;;;;;16.00;8.95;;;;;;;20.42;46.01;101884.59;5116215;28;20390;-65
2022/10/13 10:55:19;;;;;;;27.27;9.88;;;;;;;20.69;45.62;101871.13;5097593;27;20470;-65
2022/10/13 10:58:17;;;;;;;14.30;9.23;;;;;;;20.81;44.78;101874.84;5069262;28;20418;-65
2022/10/13 11:00:52;;;;;;;12.45;8.55;;;;;;;20.74;44.68;101865.09;5078002;28;20386;-65
2022/10/13 11:04:52;;;;;;;13.10;8.18;;;;;;;20.89;44.14;101859.50;5074991;27;20428;-65
2022/10/13 11:07:21;;;;;;;13.50;9.13;;;;;;;20.85;44.04;101855.53;5075437;28;20937;-64
2022/10/13 11:09:46;;;;;;;14.00;9.47;;;;;;;20.89;44.05;101852.22;5066257;28;20402;-64
2022/10/13 11:12:18;;;;;;;14.73;9.15;;;;;;;20.94;43.43;101855.13;5066792;28;20850;-64
2022/10/13 11:15:01;;;;;;;11.45;7.85;;;;;;;21.10;42.71;101850.31;5066390;28;20399;-64
2022/10/13 11:17:31;;;;;;;16.45;8.68;;;;;;;21.17;42.73;101856.50;5078544;28;20871;-65
2022/10/13 11:19:58;;;;;;;12.50;7.47;;;;;;;21.03;42.36;101846.78;5072258;28;20393;-65
2022/10/13 11:22:26;;;;;;;11.88;7.65;;;;;;;21.04;42.59;101849.28;5086357;28;20432;-64
2022/10/13 11:25:00;;;;;;;12.70;8.30;;;;;;;21.08;42.67;101844.28;5083207;28;20392;-65
2022/10/13 11:27:40;;;;;;;10.13;7.38;;;;;;;21.12;42.23;101838.28;5062082;28;20392;-65
2022/10/13 11:31:01;;;;;;;10.77;7.40;;;;;;;21.12;42.41;101826.66;5066033;28;20896;-64
2022/10/13 11:33:38;;;;;;;13.02;6.80;;;;;;;21.16;42.32;101831.41;5022905;28;20763;-64
2022/10/13 11:37:57;;;;;;;9.32;6.07;;;;;;;21.07;41.71;101821.06;5055017;28;20819;-64
2022/10/13 11:40:28;;;;;;;11.77;6.72;;;;;;;21.31;41.43;101808.75;5032565;28;20409;-64
2022/10/13 11:43:11;;;;;;;9.07;7.13;;;;;;;21.33;40.83;101810.16;5046495;28;20381;-65
2022/10/13 11:46:02;;;;;;;13.52;6.70;;;;;;;21.34;41.21;101806.44;5026751;28;20391;-65
2022/10/13 11:48:49;;;;;;;10.48;5.88;;;;;;;21.47;40.89;101807.44;5040697;28;20401;-65
2022/10/13 11:51:50;;;;;;;8.77;5.77;;;;;;;21.41;40.80;101790.22;5026830;28;20809;-65
2022/10/13 11:54:18;;;;;;;9.88;6.13;;;;;;;21.55;40.67;101799.94;5033485;28;20435;-65
2022/10/13 11:56:43;;;;;;;9.60;5.60;;;;;;;21.37;41.00;101786.28;5046523;28;20441;-65
2022/10/13 11:59:29;;;;;;;9.20;5.40;;;;;;;21.33;41.00;101794.00;5046259;28;20422;-65
2022/10/13 12:02:08;;;;;;;9.10;5.47;;;;;;;21.40;41.12;101791.25;5046366;28;20389;-64
2022/10/13 12:04:33;;;;;;;11.70;6.10;;;;;;;21.43;41.13;101801.63;5021807;28;20436;-66
2022/10/13 12:07:06;;;;;;;8.30;5.40;;;;;;;21.47;40.58;101783.19;5046179;28;20795;-65
2022/10/13 12:09:33;;;;;;;10.10;5.25;;;;;;;21.54;40.45;101782.09;5012525;28;20380;-65
2022/10/13 12:12:19;;;;;;;7.93;4.82;;;;;;;21.63;40.22;101782.66;5035044;28;20895;-64
2022/10/13 12:14:49;;;;;;;11.15;5.35;;;;;;;21.69;40.55;101789.06;5028329;28;20391;-65
2022/10/13 12:17:30;;;;;;;8.88;5.10;;;;;;;21.50;40.19;101770.09;5026478;28;20423;-65
2022/10/13 12:20:00;;;;;;;8.45;5.57;;;;;;;21.55;40.20;101780.19;5029959;28;20401;-65
2022/10/13 12:22:26;;;;;;;8.02;5.18;;;;;;;21.58;40.27;101780.59;5046130;28;20887;-66
2022/10/13 12:25:01;;;;;;;9.38;5.22;;;;;;;21.56;40.44;101774.59;5042595;28;20390;-65
2022/10/13 12:27:31;;;;;;;8.80;5.15;;;;;;;21.67;40.56;101775.78;5035875;28;20799;-64
2022/10/13 12:29:57;;;;;;;9.47;5.57;;;;;;;21.77;40.68;101762.63;5029015;28;20518;-65